sensor_id;sensor_type;location;lat;lon;timestamp;pressure;altitude;pressure_sealevel;temperature;humidity
67740;BME280;54536;50.090;14.420;2024-03-29T00:01:33;98182.38;;;10.61;50.69
67740;BME280;54536;50.090;14.420;2024-03-29T00:03:59;98177.94;;;10.62;50.97
67740;BME280;54536;50.090;14.420;2024-03-29T00:06:25;98169.56;;;10.66;50.64
67740;BME280;54536;50.090;14.420;2024-03-29T00:08:51;98175.31;;;10.62;50.87
67740;BME280;54536;50.090;14.420;2024-03-29T00:11:17;98173.84;;;10.51;51.43
67740;BME280;54536;50.090;14.420;2024-03-29T00:13:43;98173.53;;;10.54;50.94
67740;BME280;54536;50.090;14.420;2024-03-29T00:16:08;98184.06;;;10.38;51.40
67740;BME280;54536;50.090;14.420;2024-03-29T00:18:34;98187.31;;;10.48;51.60
67740;BME280;54536;50.090;14.420;2024-03-29T00:21:00;98200.13;;;10.51;51.58
67740;BME280;54536;50.090;14.420;2024-03-29T00:23:26;98201.78;;;10.52;51.47
67740;BME280;54536;50.090;14.420;2024-03-29T00:25:53;98201.44;;;10.39;51.33
67740;BME280;54536;50.090;14.420;2024-03-29T00:28:24;98201.78;;;10.44;51.45
67740;BME280;54536;50.090;14.420;2024-03-29T00:30:50;98204.25;;;10.37;51.47
67740;BME280;54536;50.090;14.420;2024-03-29T00:33:16;98207.84;;;10.36;51.57
67740;BME280;54536;50.090;14.420;2024-03-29T00:35:42;98212.31;;;10.44;51.23
67740;BME280;54536;50.090;14.420;2024-03-29T00:38:08;98219.69;;;10.40;51.64
67740;BME280;54536;50.090;14.420;2024-03-29T00:40:35;98231.13;;;10.23;51.92
67740;BME280;54536;50.090;14.420;2024-03-29T00:43:02;98235.63;;;10.30;52.07
67740;BME280;54536;50.090;14.420;2024-03-29T00:45:28;98239.81;;;10.23;52.09
67740;BME280;54536;50.090;14.420;2024-03-29T00:47:54;98243.66;;;10.29;52.00
67740;BME280;54536;50.090;14.420;2024-03-29T00:50:21;98248.75;;;10.39;52.01
67740;BME280;54536;50.090;14.420;2024-03-29T00:52:47;98241.19;;;10.27;51.97
67740;BME280;54536;50.090;14.420;2024-03-29T00:55:14;98236.75;;;10.28;52.18
67740;BME280;54536;50.090;14.420;2024-03-29T00:57:40;98242.00;;;10.28;51.80
67740;BME280;54536;50.090;14.420;2024-03-29T01:00:07;98243.94;;;10.18;52.16
67740;BME280;54536;50.090;14.420;2024-03-29T01:02:36;98248.56;;;10.32;52.20
67740;BME280;54536;50.090;14.420;2024-03-29T01:05:02;98238.41;;;10.29;51.81
67740;BME280;54536;50.090;14.420;2024-03-29T01:07:28;98247.94;;;10.38;51.47
67740;BME280;54536;50.090;14.420;2024-03-29T01:09:54;98243.00;;;10.35;51.90
67740;BME280;54536;50.090;14.420;2024-03-29T01:12:20;98243.78;;;10.11;52.07
67740;BME280;54536;50.090;14.420;2024-03-29T01:14:46;98246.59;;;10.26;51.83
67740;BME280;54536;50.090;14.420;2024-03-29T01:17:12;98246.88;;;10.23;52.23
67740;BME280;54536;50.090;14.420;2024-03-29T01:19:38;98245.94;;;10.24;52.23
67740;BME280;54536;50.090;14.420;2024-03-29T01:22:04;98249.56;;;10.39;51.51
67740;BME280;54536;50.090;14.420;2024-03-29T01:24:30;98249.41;;;10.41;51.58
67740;BME280;54536;50.090;14.420;2024-03-29T01:26:57;98250.59;;;10.46;50.96
67740;BME280;54536;50.090;14.420;2024-03-29T01:29:24;98243.00;;;10.27;51.51
67740;BME280;54536;50.090;14.420;2024-03-29T01:31:50;98243.59;;;10.13;51.67
67740;BME280;54536;50.090;14.420;2024-03-29T01:34:16;98242.28;;;10.17;52.22
67740;BME280;54536;50.090;14.420;2024-03-29T01:36:43;98236.06;;;10.18;51.95
67740;BME280;54536;50.090;14.420;2024-03-29T01:39:09;98238.06;;;10.32;51.47
67740;BME280;54536;50.090;14.420;2024-03-29T01:41:40;98234.28;;;10.43;51.65
67740;BME280;54536;50.090;14.420;2024-03-29T01:44:05;98233.63;;;10.32;51.46
67740;BME280;54536;50.090;14.420;2024-03-29T01:46:35;98234.09;;;10.12;52.06
67740;BME280;54536;50.090;14.420;2024-03-29T01:49:04;98233.59;;;10.24;51.58
67740;BME280;54536;50.090;14.420;2024-03-29T01:51:31;98229.78;;;10.02;52.38
67740;BME280;54536;50.090;14.420;2024-03-29T01:53:58;98236.53;;;10.13;52.13
67740;BME280;54536;50.090;14.420;2024-03-29T01:56:26;98229.31;;;10.15;51.86
67740;BME280;54536;50.090;14.420;2024-03-29T01:58:55;98230.81;;;10.18;51.85
67740;BME280;54536;50.090;14.420;2024-03-29T02:01:24;98235.56;;;10.14;51.93
67740;BME280;54536;50.090;14.420;2024-03-29T02:03:52;98241.31;;;10.18;52.25
67740;BME280;54536;50.090;14.420;2024-03-29T02:06:18;98245.47;;;10.28;51.71
67740;BME280;54536;50.090;14.420;2024-03-29T02:08:44;98241.19;;;10.27;51.57
67740;BME280;54536;50.090;14.420;2024-03-29T02:11:10;98242.25;;;10.00;51.76
67740;BME280;54536;50.090;14.420;2024-03-29T02:13:36;98245.22;;;9.97;51.91
67740;BME280;54536;50.090;14.420;2024-03-29T02:16:03;98244.88;;;10.00;52.04
67740;BME280;54536;50.090;14.420;2024-03-29T02:18:29;98236.19;;;10.00;51.76
67740;BME280;54536;50.090;14.420;2024-03-29T02:20:56;98247.31;;;9.85;52.03
67740;BME280;54536;50.090;14.420;2024-03-29T02:23:30;98235.38;;;9.91;52.28
67740;BME280;54536;50.090;14.420;2024-03-29T02:25:58;98241.56;;;9.90;52.05
67740;BME280;54536;50.090;14.420;2024-03-29T02:28:24;98249.28;;;9.83;51.99
67740;BME280;54536;50.090;14.420;2024-03-29T02:30:51;98263.75;;;9.88;52.46
67740;BME280;54536;50.090;14.420;2024-03-29T02:33:17;98257.47;;;9.80;52.30
67740;BME280;54536;50.090;14.420;2024-03-29T02:35:43;98246.31;;;9.87;52.57
67740;BME280;54536;50.090;14.420;2024-03-29T02:38:09;98251.06;;;9.75;52.59
67740;BME280;54536;50.090;14.420;2024-03-29T02:40:35;98242.34;;;9.74;52.61
67740;BME280;54536;50.090;14.420;2024-03-29T02:43:01;98245.13;;;9.65;52.88
67740;BME280;54536;50.090;14.420;2024-03-29T02:45:27;98249.91;;;9.77;52.81
67740;BME280;54536;50.090;14.420;2024-03-29T02:47:53;98255.38;;;9.92;52.06
67740;BME280;54536;50.090;14.420;2024-03-29T02:50:20;98240.16;;;10.04;52.20
67740;BME280;54536;50.090;14.420;2024-03-29T02:52:45;98250.44;;;9.89;51.99
67740;BME280;54536;50.090;14.420;2024-03-29T02:55:12;98254.88;;;9.89;52.28
67740;BME280;54536;50.090;14.420;2024-03-29T02:57:38;98264.53;;;9.80;52.36
67740;BME280;54536;50.090;14.420;2024-03-29T03:00:06;98268.16;;;9.87;52.26
67740;BME280;54536;50.090;14.420;2024-03-29T03:02:32;98272.25;;;9.90;52.30
67740;BME280;54536;50.090;14.420;2024-03-29T03:04:58;98288.97;;;9.80;52.43
67740;BME280;54536;50.090;14.420;2024-03-29T03:07:26;98272.03;;;9.67;53.25
67740;BME280;54536;50.090;14.420;2024-03-29T03:10:11;98269.94;;;9.78;52.47
67740;BME280;54536;50.090;14.420;2024-03-29T03:12:55;98275.91;;;9.54;53.27
67740;BME280;54536;50.090;14.420;2024-03-29T03:15:22;98278.56;;;9.63;53.33
67740;BME280;54536;50.090;14.420;2024-03-29T03:17:47;98278.56;;;9.63;52.88
67740;BME280;54536;50.090;14.420;2024-03-29T03:20:14;98274.13;;;9.55;53.19
67740;BME280;54536;50.090;14.420;2024-03-29T03:22:42;98260.94;;;9.47;53.64
67740;BME280;54536;50.090;14.420;2024-03-29T03:25:09;98261.94;;;9.46;53.40
67740;BME280;54536;50.090;14.420;2024-03-29T03:27:35;98268.13;;;9.36;54.05
67740;BME280;54536;50.090;14.420;2024-03-29T03:30:01;98274.78;;;9.23;54.18
67740;BME280;54536;50.090;14.420;2024-03-29T03:32:27;98276.97;;;9.35;53.87
67740;BME280;54536;50.090;14.420;2024-03-29T03:34:53;98269.34;;;9.50;53.38
67740;BME280;54536;50.090;14.420;2024-03-29T03:37:19;98269.03;;;9.53;53.67
67740;BME280;54536;50.090;14.420;2024-03-29T03:39:45;98260.91;;;9.73;52.80
67740;BME280;54536;50.090;14.420;2024-03-29T03:42:11;98250.09;;;9.42;53.48
67740;BME280;54536;50.090;14.420;2024-03-29T03:44:38;98247.63;;;9.32;53.67
67740;BME280;54536;50.090;14.420;2024-03-29T03:47:04;98256.22;;;9.50;53.88
67740;BME280;54536;50.090;14.420;2024-03-29T03:49:30;98260.16;;;9.54;53.51
67740;BME280;54536;50.090;14.420;2024-03-29T03:51:56;98247.63;;;9.40;53.33
67740;BME280;54536;50.090;14.420;2024-03-29T03:54:22;98244.09;;;9.49;53.60
67740;BME280;54536;50.090;14.420;2024-03-29T03:56:48;98239.81;;;9.48;53.53
67740;BME280;54536;50.090;14.420;2024-03-29T03:59:15;98249.91;;;9.35;53.64
67740;BME280;54536;50.090;14.420;2024-03-29T04:01:41;98247.75;;;9.30;53.71
67740;BME280;54536;50.090;14.420;2024-03-29T04:04:07;98238.75;;;9.33;53.57
67740;BME280;54536;50.090;14.420;2024-03-29T04:06:33;98241.72;;;9.38;53.39
67740;BME280;54536;50.090;14.420;2024-03-29T04:08:59;98250.38;;;9.30;53.70
67740;BME280;54536;50.090;14.420;2024-03-29T04:11:25;98258.22;;;9.22;53.86
67740;BME280;54536;50.090;14.420;2024-03-29T04:13:52;98265.13;;;9.31;53.41
67740;BME280;54536;50.090;14.420;2024-03-29T04:16:18;98263.13;;;9.25;53.74
67740;BME280;54536;50.090;14.420;2024-03-29T04:18:44;98255.44;;;9.24;53.97
67740;BME280;54536;50.090;14.420;2024-03-29T04:21:10;98253.84;;;9.05;54.21
67740;BME280;54536;50.090;14.420;2024-03-29T04:23:37;98243.97;;;8.99;54.27
67740;BME280;54536;50.090;14.420;2024-03-29T04:26:03;98247.84;;;9.12;54.16
67740;BME280;54536;50.090;14.420;2024-03-29T04:28:29;98244.81;;;8.99;54.40
67740;BME280;54536;50.090;14.420;2024-03-29T04:30:57;98252.78;;;8.89;54.55
67740;BME280;54536;50.090;14.420;2024-03-29T04:33:24;98255.59;;;8.96;54.57
67740;BME280;54536;50.090;14.420;2024-03-29T04:36:02;98250.78;;;9.09;54.41
67740;BME280;54536;50.090;14.420;2024-03-29T04:38:29;98240.41;;;9.08;54.33
67740;BME280;54536;50.090;14.420;2024-03-29T04:40:57;98253.00;;;8.96;54.47
67740;BME280;54536;50.090;14.420;2024-03-29T04:43:25;98253.53;;;9.08;54.36
67740;BME280;54536;50.090;14.420;2024-03-29T04:46:09;98247.56;;;9.24;54.09
67740;BME280;54536;50.090;14.420;2024-03-29T04:48:42;98249.56;;;9.30;53.64
67740;BME280;54536;50.090;14.420;2024-03-29T04:51:09;98259.69;;;9.25;53.79
67740;BME280;54536;50.090;14.420;2024-03-29T04:53:36;98261.34;;;9.26;53.60
67740;BME280;54536;50.090;14.420;2024-03-29T04:56:04;98263.50;;;9.30;53.45
67740;BME280;54536;50.090;14.420;2024-03-29T04:58:32;98272.50;;;9.02;54.42
67740;BME280;54536;50.090;14.420;2024-03-29T05:00:58;98286.31;;;9.12;54.17
67740;BME280;54536;50.090;14.420;2024-03-29T05:03:24;98287.41;;;9.27;53.89
67740;BME280;54536;50.090;14.420;2024-03-29T05:05:51;98286.72;;;9.25;53.61
67740;BME280;54536;50.090;14.420;2024-03-29T05:08:18;98292.91;;;9.42;53.71
67740;BME280;54536;50.090;14.420;2024-03-29T05:10:46;98294.66;;;9.33;53.78
67740;BME280;54536;50.090;14.420;2024-03-29T05:13:13;98294.28;;;9.28;53.51
67740;BME280;54536;50.090;14.420;2024-03-29T05:15:39;98285.06;;;9.42;53.36
67740;BME280;54536;50.090;14.420;2024-03-29T05:18:05;98291.94;;;9.43;53.56
67740;BME280;54536;50.090;14.420;2024-03-29T05:20:31;98282.84;;;9.29;53.49
67740;BME280;54536;50.090;14.420;2024-03-29T05:22:58;98282.22;;;9.35;53.09
67740;BME280;54536;50.090;14.420;2024-03-29T05:25:25;98280.13;;;9.39;52.85
67740;BME280;54536;50.090;14.420;2024-03-29T05:27:51;98271.06;;;9.33;53.14
67740;BME280;54536;50.090;14.420;2024-03-29T05:30:17;98267.09;;;9.29;53.28
67740;BME280;54536;50.090;14.420;2024-03-29T05:32:44;98265.31;;;9.30;53.76
67740;BME280;54536;50.090;14.420;2024-03-29T05:35:10;98264.56;;;9.46;52.98
67740;BME280;54536;50.090;14.420;2024-03-29T05:37:37;98268.38;;;9.59;53.04
67740;BME280;54536;50.090;14.420;2024-03-29T05:40:04;98258.53;;;9.53;52.49
67740;BME280;54536;50.090;14.420;2024-03-29T05:42:32;98270.03;;;9.26;53.14
67740;BME280;54536;50.090;14.420;2024-03-29T05:45:00;98263.56;;;9.47;52.82
67740;BME280;54536;50.090;14.420;2024-03-29T05:47:26;98276.31;;;9.33;52.68
67740;BME280;54536;50.090;14.420;2024-03-29T05:49:54;98276.59;;;9.22;53.25
67740;BME280;54536;50.090;14.420;2024-03-29T05:52:20;98281.66;;;9.24;53.15
67740;BME280;54536;50.090;14.420;2024-03-29T05:54:49;98282.53;;;9.32;53.17
67740;BME280;54536;50.090;14.420;2024-03-29T05:57:15;98286.88;;;9.50;52.52
67740;BME280;54536;50.090;14.420;2024-03-29T05:59:42;98293.69;;;9.34;52.67
67740;BME280;54536;50.090;14.420;2024-03-29T06:02:08;98284.66;;;9.29;52.98
67740;BME280;54536;50.090;14.420;2024-03-29T06:04:34;98282.13;;;9.53;52.50
67740;BME280;54536;50.090;14.420;2024-03-29T06:07:00;98285.94;;;9.59;52.06
67740;BME280;54536;50.090;14.420;2024-03-29T06:09:28;98290.28;;;9.42;52.82
67740;BME280;54536;50.090;14.420;2024-03-29T06:11:55;98299.00;;;9.43;52.55
67740;BME280;54536;50.090;14.420;2024-03-29T06:14:23;98293.00;;;9.58;52.05
67740;BME280;54536;50.090;14.420;2024-03-29T06:17:08;98302.94;;;9.47;52.33
67740;BME280;54536;50.090;14.420;2024-03-29T06:19:50;98297.09;;;9.61;52.37
67740;BME280;54536;50.090;14.420;2024-03-29T06:22:17;98306.63;;;9.62;52.08
67740;BME280;54536;50.090;14.420;2024-03-29T06:24:44;98301.88;;;9.66;52.05
67740;BME280;54536;50.090;14.420;2024-03-29T06:27:10;98285.44;;;9.55;52.25
67740;BME280;54536;50.090;14.420;2024-03-29T06:29:37;98290.38;;;9.58;51.90
67740;BME280;54536;50.090;14.420;2024-03-29T06:32:03;98296.19;;;9.78;51.77
67740;BME280;54536;50.090;14.420;2024-03-29T06:34:32;98299.81;;;9.85;51.00
67740;BME280;54536;50.090;14.420;2024-03-29T06:36:58;98300.16;;;9.82;51.05
67740;BME280;54536;50.090;14.420;2024-03-29T06:39:24;98307.06;;;9.92;50.79
67740;BME280;54536;50.090;14.420;2024-03-29T06:41:52;98313.69;;;10.04;50.72
67740;BME280;54536;50.090;14.420;2024-03-29T06:44:18;98308.22;;;9.89;50.79
67740;BME280;54536;50.090;14.420;2024-03-29T06:46:45;98317.91;;;9.97;50.62
67740;BME280;54536;50.090;14.420;2024-03-29T06:49:12;98327.59;;;9.96;50.44
67740;BME280;54536;50.090;14.420;2024-03-29T06:51:39;98320.59;;;10.05;50.06
67740;BME280;54536;50.090;14.420;2024-03-29T06:54:09;98321.63;;;10.20;49.79
67740;BME280;54536;50.090;14.420;2024-03-29T06:56:35;98312.13;;;10.36;49.65
67740;BME280;54536;50.090;14.420;2024-03-29T06:59:02;98311.97;;;10.29;49.65
67740;BME280;54536;50.090;14.420;2024-03-29T07:01:28;98306.72;;;10.45;49.42
67740;BME280;54536;50.090;14.420;2024-03-29T07:03:54;98305.78;;;10.46;49.09
67740;BME280;54536;50.090;14.420;2024-03-29T07:06:20;98298.69;;;10.55;49.20
67740;BME280;54536;50.090;14.420;2024-03-29T07:08:47;98292.81;;;10.69;48.81
67740;BME280;54536;50.090;14.420;2024-03-29T07:11:13;98283.25;;;10.85;48.18
67740;BME280;54536;50.090;14.420;2024-03-29T07:13:39;98284.91;;;10.94;48.01
67740;BME280;54536;50.090;14.420;2024-03-29T07:16:06;98284.09;;;10.93;47.81
67740;BME280;54536;50.090;14.420;2024-03-29T07:18:33;98286.72;;;10.93;47.89
67740;BME280;54536;50.090;14.420;2024-03-29T07:20:59;98290.66;;;10.97;47.86
67740;BME280;54536;50.090;14.420;2024-03-29T07:23:25;98287.34;;;11.12;47.21
67740;BME280;54536;50.090;14.420;2024-03-29T07:25:59;98280.59;;;11.25;46.86
67740;BME280;54536;50.090;14.420;2024-03-29T07:28:26;98275.47;;;11.24;47.32
67740;BME280;54536;50.090;14.420;2024-03-29T07:30:52;98272.69;;;11.25;46.81
67740;BME280;54536;50.090;14.420;2024-03-29T07:33:23;98271.25;;;11.54;46.99
67740;BME280;54536;50.090;14.420;2024-03-29T07:35:53;98266.25;;;11.76;46.20
67740;BME280;54536;50.090;14.420;2024-03-29T07:38:20;98276.13;;;11.73;45.64
67740;BME280;54536;50.090;14.420;2024-03-29T07:40:47;98268.72;;;11.85;45.12
67740;BME280;54536;50.090;14.420;2024-03-29T07:43:14;98268.50;;;11.95;44.83
67740;BME280;54536;50.090;14.420;2024-03-29T07:45:44;98265.78;;;12.11;44.64
67740;BME280;54536;50.090;14.420;2024-03-29T07:48:15;98256.00;;;12.20;44.12
67740;BME280;54536;50.090;14.420;2024-03-29T07:50:42;98247.47;;;12.41;43.46
67740;BME280;54536;50.090;14.420;2024-03-29T07:53:09;98232.31;;;12.58;42.91
67740;BME280;54536;50.090;14.420;2024-03-29T07:55:36;98229.47;;;12.82;42.39
67740;BME280;54536;50.090;14.420;2024-03-29T07:58:03;98219.66;;;12.91;42.41
67740;BME280;54536;50.090;14.420;2024-03-29T08:00:32;98216.03;;;12.92;41.95
67740;BME280;54536;50.090;14.420;2024-03-29T08:02:59;98221.56;;;12.97;41.53
67740;BME280;54536;50.090;14.420;2024-03-29T08:05:26;98217.50;;;13.09;41.05
67740;BME280;54536;50.090;14.420;2024-03-29T08:07:53;98218.31;;;13.10;40.78
67740;BME280;54536;50.090;14.420;2024-03-29T08:10:21;98217.69;;;13.08;40.70
67740;BME280;54536;50.090;14.420;2024-03-29T08:12:47;98210.44;;;13.25;40.50
67740;BME280;54536;50.090;14.420;2024-03-29T08:15:13;98217.53;;;13.24;40.58
67740;BME280;54536;50.090;14.420;2024-03-29T08:17:39;98204.69;;;13.21;40.00
67740;BME280;54536;50.090;14.420;2024-03-29T08:20:06;98211.72;;;13.29;39.82
67740;BME280;54536;50.090;14.420;2024-03-29T08:22:32;98214.59;;;13.34;40.24
67740;BME280;54536;50.090;14.420;2024-03-29T08:25:02;98207.25;;;13.44;39.85
67740;BME280;54536;50.090;14.420;2024-03-29T08:27:28;98212.03;;;13.55;39.57
67740;BME280;54536;50.090;14.420;2024-03-29T08:29:55;98212.50;;;13.59;39.25
67740;BME280;54536;50.090;14.420;2024-03-29T08:32:21;98217.84;;;13.66;38.93
67740;BME280;54536;50.090;14.420;2024-03-29T08:34:47;98223.41;;;13.71;38.44
67740;BME280;54536;50.090;14.420;2024-03-29T08:37:13;98222.84;;;13.75;38.50
67740;BME280;54536;50.090;14.420;2024-03-29T08:39:39;98218.91;;;13.86;37.88
67740;BME280;54536;50.090;14.420;2024-03-29T08:42:07;98211.16;;;13.85;37.69
67740;BME280;54536;50.090;14.420;2024-03-29T08:44:37;98205.81;;;13.99;37.58
67740;BME280;54536;50.090;14.420;2024-03-29T08:47:04;98206.44;;;14.16;37.16
67740;BME280;54536;50.090;14.420;2024-03-29T08:49:30;98194.69;;;14.25;36.68
67740;BME280;54536;50.090;14.420;2024-03-29T08:51:57;98199.22;;;14.32;36.29
67740;BME280;54536;50.090;14.420;2024-03-29T08:54:25;98189.72;;;14.37;36.39
67740;BME280;54536;50.090;14.420;2024-03-29T08:56:51;98188.53;;;14.61;35.77
67740;BME280;54536;50.090;14.420;2024-03-29T08:59:17;98188.06;;;14.79;35.39
67740;BME280;54536;50.090;14.420;2024-03-29T09:01:46;98194.78;;;15.10;33.62
67740;BME280;54536;50.090;14.420;2024-03-29T09:04:15;98190.66;;;15.42;33.96
67740;BME280;54536;50.090;14.420;2024-03-29T09:06:42;98185.59;;;15.47;32.83
67740;BME280;54536;50.090;14.420;2024-03-29T09:09:09;98175.06;;;15.60;32.04
67740;BME280;54536;50.090;14.420;2024-03-29T09:11:36;98170.00;;;15.72;30.13
67740;BME280;54536;50.090;14.420;2024-03-29T09:14:02;98158.47;;;15.93;29.12
67740;BME280;54536;50.090;14.420;2024-03-29T09:16:30;98148.69;;;16.13;28.64
67740;BME280;54536;50.090;14.420;2024-03-29T09:18:57;98144.03;;;16.22;28.15
67740;BME280;54536;50.090;14.420;2024-03-29T09:21:23;98152.78;;;16.36;27.06
67740;BME280;54536;50.090;14.420;2024-03-29T09:23:49;98143.63;;;16.45;26.78
67740;BME280;54536;50.090;14.420;2024-03-29T09:26:19;98144.22;;;16.54;26.44
67740;BME280;54536;50.090;14.420;2024-03-29T09:28:45;98141.53;;;16.60;25.70
67740;BME280;54536;50.090;14.420;2024-03-29T09:31:11;98141.75;;;16.72;25.88
67740;BME280;54536;50.090;14.420;2024-03-29T09:33:37;98137.66;;;16.70;25.58
67740;BME280;54536;50.090;14.420;2024-03-29T09:36:04;98137.25;;;16.59;25.50
67740;BME280;54536;50.090;14.420;2024-03-29T09:38:30;98124.19;;;16.84;25.49
67740;BME280;54536;50.090;14.420;2024-03-29T09:41:13;98130.91;;;16.87;25.51
67740;BME280;54536;50.090;14.420;2024-03-29T09:43:42;98117.63;;;16.94;25.73
67740;BME280;54536;50.090;14.420;2024-03-29T09:46:13;98111.44;;;17.06;25.29
67740;BME280;54536;50.090;14.420;2024-03-29T09:48:41;98126.38;;;17.14;25.23
67740;BME280;54536;50.090;14.420;2024-03-29T09:51:09;98114.06;;;17.20;25.47
67740;BME280;54536;50.090;14.420;2024-03-29T09:53:36;98101.38;;;17.28;25.62
67740;BME280;54536;50.090;14.420;2024-03-29T09:56:07;98098.06;;;17.40;25.30
67740;BME280;54536;50.090;14.420;2024-03-29T09:58:35;98084.91;;;17.51;25.33
67740;BME280;54536;50.090;14.420;2024-03-29T10:01:04;98089.59;;;17.56;25.56
67740;BME280;54536;50.090;14.420;2024-03-29T10:03:31;98093.19;;;17.68;25.40
67740;BME280;54536;50.090;14.420;2024-03-29T10:05:59;98082.09;;;17.78;25.05
67740;BME280;54536;50.090;14.420;2024-03-29T10:08:30;98077.56;;;17.85;24.75
67740;BME280;54536;50.090;14.420;2024-03-29T10:10:57;98083.81;;;17.97;24.30
67740;BME280;54536;50.090;14.420;2024-03-29T10:13:24;98076.22;;;18.01;24.46
67740;BME280;54536;50.090;14.420;2024-03-29T10:15:55;98076.00;;;18.02;23.92
67740;BME280;54536;50.090;14.420;2024-03-29T10:18:26;98071.44;;;18.10;24.02
67740;BME280;54536;50.090;14.420;2024-03-29T10:21:06;98074.19;;;18.28;23.78
67740;BME280;54536;50.090;14.420;2024-03-29T10:23:34;98079.88;;;18.32;23.46
67740;BME280;54536;50.090;14.420;2024-03-29T10:26:03;98067.75;;;18.36;23.42
67740;BME280;54536;50.090;14.420;2024-03-29T10:28:32;98065.63;;;18.44;23.40
67740;BME280;54536;50.090;14.420;2024-03-29T10:31:02;98059.56;;;18.56;23.34
67740;BME280;54536;50.090;14.420;2024-03-29T10:33:30;98056.63;;;18.64;23.30
67740;BME280;54536;50.090;14.420;2024-03-29T10:35:57;98052.84;;;18.71;23.31
67740;BME280;54536;50.090;14.420;2024-03-29T10:38:26;98047.47;;;18.78;23.35
67740;BME280;54536;50.090;14.420;2024-03-29T10:40:53;98052.28;;;18.88;23.11
67740;BME280;54536;50.090;14.420;2024-03-29T10:43:20;98049.03;;;19.04;22.95
67740;BME280;54536;50.090;14.420;2024-03-29T10:45:47;98041.16;;;19.09;22.66
67740;BME280;54536;50.090;14.420;2024-03-29T10:48:15;98038.31;;;19.23;22.80
67740;BME280;54536;50.090;14.420;2024-03-29T10:50:43;98042.66;;;19.35;22.58
67740;BME280;54536;50.090;14.420;2024-03-29T10:53:10;98027.16;;;19.44;22.50
67740;BME280;54536;50.090;14.420;2024-03-29T10:55:37;98014.88;;;19.73;22.78
67740;BME280;54536;50.090;14.420;2024-03-29T10:58:05;98023.13;;;19.83;22.06
67740;BME280;54536;50.090;14.420;2024-03-29T11:00:39;98012.47;;;20.07;22.12
67740;BME280;54536;50.090;14.420;2024-03-29T11:03:18;98005.63;;;20.34;21.50
67740;BME280;54536;50.090;14.420;2024-03-29T11:05:50;98005.75;;;20.51;21.35
67740;BME280;54536;50.090;14.420;2024-03-29T11:08:22;98001.97;;;20.88;21.04
67740;BME280;54536;50.090;14.420;2024-03-29T11:10:56;98007.97;;;21.07;20.93
67740;BME280;54536;50.090;14.420;2024-03-29T11:13:46;98000.47;;;21.20;20.72
67740;BME280;54536;50.090;14.420;2024-03-29T11:16:14;97995.94;;;21.49;20.96
67740;BME280;54536;50.090;14.420;2024-03-29T11:18:45;97998.47;;;21.73;20.44
67740;BME280;54536;50.090;14.420;2024-03-29T11:21:14;97992.88;;;22.08;20.65
67740;BME280;54536;50.090;14.420;2024-03-29T11:23:52;97995.72;;;22.18;20.39
67740;BME280;54536;50.090;14.420;2024-03-29T11:26:19;97984.03;;;22.25;20.58
67740;BME280;54536;50.090;14.420;2024-03-29T11:28:50;97988.47;;;22.02;20.76
67740;BME280;54536;50.090;14.420;2024-03-29T11:31:16;98008.44;;;21.94;20.48
67740;BME280;54536;50.090;14.420;2024-03-29T11:36:12;98008.53;;;21.37;20.73
67740;BME280;54536;50.090;14.420;2024-03-29T11:38:40;98017.97;;;21.28;20.77
67740;BME280;54536;50.090;14.420;2024-03-29T11:41:10;98018.06;;;21.33;22.36
67740;BME280;54536;50.090;14.420;2024-03-29T11:43:37;98015.88;;;21.30;20.76
67740;BME280;54536;50.090;14.420;2024-03-29T11:46:09;98017.63;;;21.24;20.99
67740;BME280;54536;50.090;14.420;2024-03-29T11:48:36;98008.63;;;21.14;20.63
67740;BME280;54536;50.090;14.420;2024-03-29T11:51:04;98009.72;;;21.01;21.11
67740;BME280;54536;50.090;14.420;2024-03-29T11:53:32;98009.78;;;20.77;21.33
67740;BME280;54536;50.090;14.420;2024-03-29T11:55:59;98005.59;;;20.81;21.71
67740;BME280;54536;50.090;14.420;2024-03-29T11:58:27;98004.91;;;20.74;21.80
67740;BME280;54536;50.090;14.420;2024-03-29T12:00:55;98000.50;;;20.68;22.05
67740;BME280;54536;50.090;14.420;2024-03-29T12:03:23;97998.56;;;20.64;22.00
67740;BME280;54536;50.090;14.420;2024-03-29T12:05:50;98018.41;;;20.56;22.42
67740;BME280;54536;50.090;14.420;2024-03-29T12:08:17;98039.75;;;20.44;22.44
67740;BME280;54536;50.090;14.420;2024-03-29T12:10:43;98050.56;;;20.38;23.13
67740;BME280;54536;50.090;14.420;2024-03-29T12:13:10;98050.22;;;20.34;23.36
67740;BME280;54536;50.090;14.420;2024-03-29T12:15:36;98063.31;;;20.35;23.69
67740;BME280;54536;50.090;14.420;2024-03-29T12:18:05;98050.66;;;20.43;23.84
67740;BME280;54536;50.090;14.420;2024-03-29T12:20:32;98056.00;;;20.43;23.78
67740;BME280;54536;50.090;14.420;2024-03-29T12:23:00;98054.38;;;20.42;24.04
67740;BME280;54536;50.090;14.420;2024-03-29T12:25:30;98062.63;;;20.40;23.99
67740;BME280;54536;50.090;14.420;2024-03-29T12:27:58;98052.78;;;20.41;24.28
67740;BME280;54536;50.090;14.420;2024-03-29T12:30:26;98045.19;;;20.49;24.49
67740;BME280;54536;50.090;14.420;2024-03-29T12:33:03;98046.03;;;20.73;24.44
67740;BME280;54536;50.090;14.420;2024-03-29T12:35:29;98035.94;;;21.16;24.05
67740;BME280;54536;50.090;14.420;2024-03-29T12:37:59;98027.84;;;22.02;22.96
67740;BME280;54536;50.090;14.420;2024-03-29T12:40:27;98029.94;;;22.33;22.50
67740;BME280;54536;50.090;14.420;2024-03-29T12:42:56;98013.06;;;22.33;22.61
67740;BME280;54536;50.090;14.420;2024-03-29T12:45:24;98018.22;;;22.78;22.00
67740;BME280;54536;50.090;14.420;2024-03-29T12:47:53;98019.66;;;23.08;21.96
67740;BME280;54536;50.090;14.420;2024-03-29T12:50:28;97991.66;;;24.12;20.76
67740;BME280;54536;50.090;14.420;2024-03-29T12:52:57;98002.78;;;23.89;20.70
67740;BME280;54536;50.090;14.420;2024-03-29T12:55:26;97994.56;;;23.68;21.52
67740;BME280;54536;50.090;14.420;2024-03-29T12:58:02;97998.91;;;23.74;20.95